createdAt,value
2019-04-20T00:00:16.866Z,7.00
2019-04-20T00:00:56.878Z,7.10
2019-04-20T00:01:58.237Z,7.10
2019-04-20T00:02:59.391Z,7.30
2019-04-20T00:03:55.720Z,7.40
2019-04-20T00:04:56.985Z,7.70
2019-04-20T00:06:17.356Z,7.80
2019-04-20T00:06:56.431Z,7.30
2019-04-20T00:07:57.049Z,7.30
2019-04-20T00:09:03.273Z,7.70
2019-04-20T00:10:03.195Z,7.40
2019-04-20T00:11:04.135Z,7.30
2019-04-20T00:12:25.437Z,7.00
2019-04-20T00:13:10.551Z,7.20
2019-04-20T00:14:03.661Z,6.70
2019-04-20T00:14:56.595Z,7.20
2019-04-20T00:15:55.915Z,6.70
2019-04-20T00:16:56.858Z,6.50
2019-04-20T00:18:17.097Z,6.10
2019-04-20T00:18:59.120Z,6.60
2019-04-20T00:19:57.802Z,6.50
2019-04-20T00:21:00.362Z,6.90
2019-04-20T00:22:01.298Z,6.30
2019-04-20T00:22:57.011Z,6.40
2019-04-20T00:24:24.787Z,7.00
2019-04-20T00:25:03.709Z,6.70
2019-04-20T00:26:06.812Z,6.60
2019-04-20T00:27:13.611Z,6.50
2019-04-20T00:28:11.787Z,6.80
2019-04-20T00:29:19.863Z,6.50
2019-04-20T00:30:43.411Z,6.80
2019-04-20T00:31:12.684Z,6.70
2019-04-20T00:32:06.341Z,6.60
2019-04-20T00:33:07.546Z,7.10
2019-04-20T00:34:07.868Z,6.50
2019-04-20T00:34:56.252Z,6.40
2019-04-20T00:36:18.040Z,6.80
2019-04-20T00:36:56.301Z,6.80
2019-04-20T00:37:57.063Z,6.50
2019-04-20T00:38:59.695Z,7.10
2019-04-20T00:39:57.830Z,6.90
2019-04-20T00:41:03.694Z,7.10
2019-04-20T00:42:19.399Z,7.00
2019-04-20T00:42:58.750Z,6.40
2019-04-20T00:43:57.824Z,6.90
2019-04-20T00:45:05.632Z,6.90
2019-04-20T00:46:04.635Z,6.60
2019-04-20T00:47:08.704Z,6.70
2019-04-20T00:48:31.527Z,6.80
2019-04-20T00:49:10.358Z,6.60
2019-04-20T00:50:05.556Z,6.80
2019-04-20T00:51:20.261Z,7.20
2019-04-20T00:52:24.211Z,6.70
2019-04-20T00:53:07.717Z,6.80
2019-04-20T00:54:18.079Z,6.80
2019-04-20T00:54:58.015Z,6.60
2019-04-20T00:55:57.116Z,6.90
2019-04-20T00:57:12.045Z,6.40
2019-04-20T00:58:08.858Z,6.80
2019-04-20T00:59:09.520Z,6.30
2019-04-20T01:00:31.559Z,6.30
2019-04-20T01:01:12.794Z,7.10
2019-04-20T01:02:15.631Z,6.90
2019-04-20T01:03:15.781Z,6.40
2019-04-20T01:04:15.064Z,6.50
2019-04-20T01:05:15.497Z,6.70
2019-04-20T01:06:31.553Z,6.70
2019-04-20T01:07:11.008Z,6.60
2019-04-20T01:08:01.623Z,6.30
2019-04-20T01:08:57.102Z,6.40
2019-04-20T01:09:58.219Z,6.70
2019-04-20T01:10:59.092Z,6.40
2019-04-20T01:12:24.131Z,6.50
2019-04-20T01:13:01.169Z,6.60
2019-04-20T01:14:02.988Z,6.70
2019-04-20T01:15:02.291Z,6.50
2019-04-20T01:16:05.019Z,6.80
2019-04-20T01:17:05.756Z,6.10
2019-04-20T01:18:17.985Z,6.40
2019-04-20T01:18:56.976Z,6.30
2019-04-20T01:19:57.022Z,6.00
2019-04-20T01:21:00.315Z,6.50
2019-04-20T01:22:03.690Z,6.30
2019-04-20T01:23:01.969Z,6.30
2019-04-20T01:24:26.285Z,6.50
2019-04-20T01:25:06.905Z,6.30
2019-04-20T01:26:04.063Z,6.10
2019-04-20T01:27:00.808Z,6.40
2019-04-20T01:28:14.989Z,6.40
2019-04-20T01:29:08.716Z,6.50
2019-04-20T01:30:24.893Z,6.70
2019-04-20T01:31:10.047Z,6.50
2019-04-20T01:32:10.488Z,6.40
2019-04-20T01:33:14.421Z,6.10
2019-04-20T01:34:06.315Z,6.20
2019-04-20T01:35:10.009Z,6.40
2019-04-20T01:36:36.800Z,6.80
2019-04-20T01:37:13.105Z,6.30
2019-04-20T01:38:18.192Z,6.50
2019-04-20T01:39:11.192Z,6.60
2019-04-20T01:40:00.748Z,6.60
2019-04-20T01:40:57.354Z,6.30
2019-04-20T01:42:19.178Z,6.30
2019-04-20T01:42:57.371Z,6.40
2019-04-20T01:43:58.463Z,6.30
2019-04-20T01:44:58.686Z,6.30
2019-04-20T01:46:07.260Z,6.20
2019-04-20T01:47:01.480Z,6.10
2019-04-20T01:48:25.506Z,5.90
2019-04-20T01:48:59.930Z,6.40
2019-04-20T01:50:05.844Z,6.10
2019-04-20T01:51:05.554Z,6.10
2019-04-20T01:52:09.614Z,6.30
2019-04-20T01:53:10.276Z,6.20
2019-04-20T01:54:33.995Z,6.40
2019-04-20T01:55:19.637Z,6.30
2019-04-20T01:56:15.416Z,6.20
2019-04-20T01:57:09.417Z,6.40
2019-04-20T01:58:19.438Z,6.30
2019-04-20T01:59:17.463Z,6.30
2019-04-20T02:00:26.418Z,6.50
2019-04-20T02:00:59.234Z,6.60
2019-04-20T02:02:03.189Z,6.30
2019-04-20T02:03:01.360Z,6.50
2019-04-20T02:04:00.173Z,6.60
2019-04-20T02:05:06.116Z,6.50
2019-04-20T02:06:21.666Z,6.00
2019-04-20T02:07:00.440Z,6.20
2019-04-20T02:07:59.048Z,6.50
2019-04-20T02:09:04.180Z,6.30
2019-04-20T02:10:02.845Z,6.10
2019-04-20T02:11:00.948Z,6.50
2019-04-20T02:12:24.216Z,6.20
2019-04-20T02:13:02.588Z,6.40
2019-04-20T02:14:02.378Z,6.60
2019-04-20T02:15:02.929Z,6.10
2019-04-20T02:16:04.266Z,6.40
2019-04-20T02:17:08.627Z,6.30
2019-04-20T02:18:31.833Z,6.50
2019-04-20T02:19:16.263Z,6.30
2019-04-20T02:20:15.658Z,6.50
2019-04-20T02:21:15.145Z,6.40
2019-04-20T02:22:12.661Z,6.50
2019-04-20T02:23:10.675Z,6.60
2019-04-20T02:24:19.639Z,6.20
2019-04-20T02:24:59.443Z,6.40
2019-04-20T02:25:58.800Z,6.20
2019-04-20T02:26:58.092Z,6.00
2019-04-20T02:28:17.582Z,6.40
2019-04-20T02:29:24.523Z,6.30
2019-04-20T02:30:57.592Z,6.30
2019-04-20T02:31:42.833Z,6.00
2019-04-20T02:32:32.310Z,6.10
2019-04-20T02:34:33.972Z,6.40
2019-04-20T02:35:30.136Z,6.40
2019-04-20T02:37:36.240Z,6.50
2019-04-20T02:38:39.272Z,6.50
2019-04-20T02:40:39.345Z,6.10
2019-04-20T02:41:36.094Z,6.40
2019-04-20T02:43:09.463Z,6.30
2019-04-20T02:43:40.485Z,6.40
2019-04-20T02:44:35.695Z,5.90
2019-04-20T02:45:35.936Z,6.40
2019-04-20T02:46:34.629Z,6.40
2019-04-20T02:48:54.509Z,6.40
2019-04-20T02:49:35.388Z,6.70
2019-04-20T02:50:29.897Z,6.60
2019-04-20T02:51:33.500Z,6.80
2019-04-20T02:53:44.880Z,6.60
2019-04-20T02:54:54.904Z,6.40
2019-04-20T02:56:40.250Z,6.30
2019-04-20T02:57:33.038Z,6.80
2019-04-20T02:58:38.880Z,6.40
2019-04-20T03:00:42.668Z,7.00
2019-04-20T03:01:20.193Z,6.20
2019-04-20T03:02:16.930Z,6.50
2019-04-20T03:03:11.293Z,6.70
2019-04-20T03:04:04.568Z,6.80
2019-04-20T03:05:13.386Z,6.50
2019-04-20T03:06:33.033Z,6.30
2019-04-20T03:07:14.912Z,6.70
2019-04-20T03:08:17.667Z,6.60
2019-04-20T03:09:24.335Z,6.60
2019-04-20T03:10:17.304Z,6.30
2019-04-20T03:11:20.931Z,6.80
2019-04-20T03:12:57.070Z,6.80
2019-04-20T03:13:18.553Z,6.80
2019-04-20T03:14:18.649Z,6.70
2019-04-20T03:15:22.603Z,6.40
2019-04-20T03:16:17.755Z,7.10
2019-04-20T03:17:21.655Z,6.60
2019-04-20T03:18:40.927Z,6.40
2019-04-20T03:19:17.365Z,6.50
2019-04-20T03:20:24.214Z,6.60
2019-04-20T03:21:27.006Z,6.90
2019-04-20T03:22:21.353Z,6.60
2019-04-20T03:23:29.839Z,6.80
2019-04-20T03:24:44.267Z,7.00
2019-04-20T03:26:21.414Z,7.20
2019-04-20T03:27:15.789Z,7.20
2019-04-20T03:28:18.307Z,6.90
2019-04-20T03:29:13.982Z,6.70
2019-04-20T03:33:30.937Z,7.00
2019-04-20T03:35:28.583Z,6.80
2019-04-20T03:36:46.937Z,6.80
2019-04-20T03:37:28.888Z,6.70
2019-04-20T03:38:21.966Z,6.90
2019-04-20T03:39:19.013Z,7.10
2019-04-20T03:40:12.576Z,6.60
2019-04-20T03:41:08.191Z,6.70
2019-04-20T03:42:20.319Z,6.80
2019-04-20T03:42:59.289Z,7.30
2019-04-20T03:44:04.060Z,7.10
2019-04-20T03:45:05.971Z,7.10
2019-04-20T03:46:05.556Z,7.20
2019-04-20T03:47:04.656Z,7.10
2019-04-20T03:48:35.924Z,7.10
2019-04-20T03:49:21.373Z,7.60
2019-04-20T03:50:25.027Z,7.20
2019-04-20T03:51:28.013Z,7.80
2019-04-20T03:52:19.214Z,7.30
2019-04-20T03:53:19.549Z,7.40
2019-04-20T03:54:34.613Z,6.80
2019-04-20T03:55:16.083Z,7.10
2019-04-20T03:56:22.823Z,6.90
2019-04-20T03:57:22.390Z,6.90
2019-04-20T03:58:19.818Z,7.60
2019-04-20T03:59:11.703Z,7.50
2019-04-20T04:00:36.460Z,7.60
2019-04-20T04:01:27.360Z,7.80
2019-04-20T04:02:34.763Z,7.60
2019-04-20T04:03:29.037Z,7.90
2019-04-20T04:04:25.294Z,7.50
2019-04-20T04:05:19.317Z,7.90
2019-04-20T04:06:28.731Z,8.20
2019-04-20T04:07:02.855Z,7.70
2019-04-20T04:08:10.669Z,7.80
2019-04-20T04:09:12.255Z,7.80
2019-04-20T04:10:16.527Z,8.20
2019-04-20T04:11:16.327Z,8.00
2019-04-20T04:12:29.741Z,8.10
2019-04-20T04:13:00.955Z,8.40
2019-04-20T04:14:00.794Z,9.00
2019-04-20T04:14:59.898Z,9.40
2019-04-20T04:16:05.113Z,9.40
2019-04-20T04:17:02.614Z,9.70
2019-04-20T04:18:28.046Z,9.20
2019-04-20T04:19:10.030Z,8.50
2019-04-20T04:20:05.102Z,8.90
2019-04-20T04:21:06.248Z,8.70
2019-04-20T04:22:12.257Z,9.20
2019-04-20T04:23:15.029Z,9.30
2019-04-20T04:24:31.574Z,8.20
2019-04-20T04:25:14.283Z,8.50
2019-04-20T04:26:16.084Z,8.90
2019-04-20T04:27:16.231Z,8.40
2019-04-20T04:28:14.820Z,8.60
2019-04-20T04:29:22.749Z,9.90
2019-04-20T04:30:35.467Z,10.20
2019-04-20T04:31:18.327Z,10.20
2019-04-20T04:32:37.217Z,10.30
2019-04-20T04:33:40.009Z,10.40
2019-04-20T04:34:20.680Z,9.50
2019-04-20T04:35:14.153Z,9.10
2019-04-20T04:36:40.522Z,9.00
2019-04-20T04:37:20.553Z,8.30
2019-04-20T04:38:24.086Z,7.90
2019-04-20T04:39:22.834Z,8.30
2019-04-20T04:40:26.556Z,8.40
2019-04-20T04:41:24.244Z,8.30
2019-04-20T04:42:42.677Z,8.20
2019-04-20T04:43:19.862Z,8.50
2019-04-20T04:44:14.519Z,8.30
2019-04-20T04:45:06.198Z,7.60
2019-04-20T04:46:01.587Z,8.60
2019-04-20T04:47:04.704Z,8.50
2019-04-20T04:48:28.354Z,7.90
2019-04-20T04:49:11.755Z,8.40
2019-04-20T04:50:09.595Z,8.40
2019-04-20T04:51:08.609Z,7.90
2019-04-20T04:52:07.172Z,8.10
2019-04-20T04:53:09.370Z,8.30
2019-04-20T04:54:31.635Z,8.50
2019-04-20T04:55:11.262Z,8.30
2019-04-20T04:56:05.816Z,7.60
2019-04-20T04:57:01.136Z,7.70
2019-04-20T04:58:00.476Z,7.80
2019-04-20T04:59:00.491Z,8.20
2019-04-20T05:00:26.187Z,8.20
2019-04-20T05:01:05.676Z,7.80
2019-04-20T05:02:01.783Z,8.10
2019-04-20T05:03:14.524Z,8.10
2019-04-20T05:04:21.457Z,7.40
2019-04-20T05:05:25.729Z,8.10
2019-04-20T05:06:35.552Z,8.10
2019-04-20T05:07:12.817Z,7.90
2019-04-20T05:08:10.165Z,8.40
2019-04-20T05:09:05.248Z,8.10
2019-04-20T05:10:01.220Z,7.80
2019-04-20T05:11:00.750Z,8.40
2019-04-20T05:12:25.325Z,8.10
2019-04-20T05:13:00.827Z,8.00
2019-04-20T05:14:06.657Z,8.40
2019-04-20T05:15:08.007Z,8.50
2019-04-20T05:16:16.865Z,8.30
2019-04-20T05:17:15.483Z,8.20
2019-04-20T05:18:45.162Z,8.30
2019-04-20T05:19:23.784Z,8.40
2019-04-20T05:20:19.043Z,8.30
2019-04-20T05:21:21.700Z,8.50
2019-04-20T05:22:21.820Z,8.80
2019-04-20T05:23:19.414Z,8.20
2019-04-20T05:24:35.666Z,8.90
2019-04-20T05:25:20.321Z,8.40
2019-04-20T05:26:20.430Z,8.40
2019-04-20T05:27:20.797Z,8.60
2019-04-20T05:28:16.855Z,8.60
2019-04-20T05:29:08.433Z,8.80
2019-04-20T05:30:22.418Z,8.80
2019-04-20T05:31:03.623Z,8.80
2019-04-20T05:32:07.875Z,8.40
2019-04-20T05:33:06.457Z,8.50
2019-04-20T05:34:25.546Z,9.00
2019-04-20T05:35:21.510Z,8.70
2019-04-20T05:36:42.766Z,8.80
2019-04-20T05:37:29.813Z,8.80
2019-04-20T05:38:22.952Z,9.20
2019-04-20T05:39:26.798Z,9.00
2019-04-20T05:40:21.926Z,8.80
2019-04-20T05:41:18.756Z,9.00
2019-04-20T05:42:42.974Z,9.20
2019-04-20T05:43:24.688Z,9.00
2019-04-20T05:44:16.869Z,9.20
2019-04-20T05:45:18.160Z,9.10
2019-04-20T05:46:22.135Z,9.40
2019-04-20T05:47:21.390Z,9.10
2019-04-20T05:48:45.854Z,9.30
2019-04-20T05:49:22.136Z,9.70
2019-04-20T05:50:15.584Z,9.20
2019-04-20T05:51:25.535Z,9.40
2019-04-20T05:52:36.395Z,9.00
2019-04-20T05:53:22.095Z,9.20
2019-04-20T05:54:49.264Z,9.10
2019-04-20T05:55:20.977Z,9.90
2019-04-20T05:56:28.807Z,9.20
2019-04-20T05:57:28.715Z,9.90
2019-04-20T05:58:24.596Z,9.70
2019-04-20T05:59:19.163Z,9.10
2019-04-20T06:00:49.718Z,9.40
2019-04-20T06:01:26.904Z,9.50
2019-04-20T06:02:25.055Z,9.60
2019-04-20T06:03:20.363Z,10.00
2019-04-20T06:04:28.737Z,9.90
2019-04-20T06:05:21.925Z,9.80
2019-04-20T06:06:44.720Z,10.00
2019-04-20T06:07:24.990Z,9.90
2019-04-20T06:08:32.066Z,10.10
2019-04-20T06:09:24.012Z,9.60
2019-04-20T06:10:30.429Z,9.50
2019-04-20T06:11:23.481Z,9.90
2019-04-20T06:12:42.716Z,9.70
2019-04-20T06:13:17.385Z,9.10
2019-04-20T06:14:11.007Z,9.40
2019-04-20T06:15:15.538Z,9.40
2019-04-20T06:16:18.360Z,10.00
2019-04-20T06:17:26.577Z,9.40
2019-04-20T06:18:39.096Z,9.10
2019-04-20T06:19:34.299Z,8.80
2019-04-20T06:20:21.787Z,9.20
2019-04-20T06:21:32.573Z,8.40
2019-04-20T06:22:28.538Z,8.80
2019-04-20T06:23:24.543Z,8.40
2019-04-20T06:24:55.276Z,8.70
2019-04-20T06:25:39.626Z,9.50
2019-04-20T06:27:21.569Z,9.10
2019-04-20T06:28:18.114Z,9.50
2019-04-20T06:29:20.490Z,8.80
2019-04-20T06:30:37.212Z,8.70
2019-04-20T06:31:26.478Z,9.10
2019-04-20T06:32:28.632Z,9.10
2019-04-20T06:33:30.604Z,8.60
2019-04-20T06:34:30.232Z,9.20
2019-04-20T06:35:35.063Z,9.10
2019-04-20T06:36:47.268Z,8.50
2019-04-20T06:37:23.237Z,8.60
2019-04-20T06:38:46.609Z,8.10
2019-04-20T06:39:27.796Z,8.90
2019-04-20T06:40:37.093Z,8.20
2019-04-20T06:41:34.991Z,8.90
2019-04-20T06:42:43.987Z,8.60
2019-04-20T06:43:25.498Z,10.20
2019-04-20T06:44:30.854Z,9.30
2019-04-20T06:45:28.155Z,8.80
2019-04-20T06:46:22.684Z,8.40
2019-04-20T06:47:24.647Z,8.70
2019-04-20T06:48:46.124Z,8.40
2019-04-20T06:49:31.749Z,8.60
2019-04-20T06:50:17.280Z,9.20
2019-04-20T06:51:25.048Z,9.50
2019-04-20T06:53:31.889Z,9.40
2019-04-20T06:54:42.161Z,11.10
2019-04-20T06:55:19.840Z,10.40
2019-04-20T06:56:24.686Z,9.80
2019-04-20T06:57:25.495Z,10.00
2019-04-20T06:58:39.042Z,10.30
2019-04-20T06:59:27.566Z,10.80
2019-04-20T07:00:51.623Z,9.30
2019-04-20T07:01:20.147Z,10.20
2019-04-20T07:02:31.401Z,10.20
2019-04-20T07:03:40.649Z,10.40
2019-04-20T07:04:38.306Z,10.90
2019-04-20T07:06:50.422Z,10.40
2019-04-20T07:07:23.900Z,10.50
2019-04-20T07:08:46.875Z,10.50
2019-04-20T07:09:31.108Z,9.80
2019-04-20T07:10:25.176Z,9.70
2019-04-20T07:11:24.067Z,10.40
2019-04-20T07:12:42.020Z,9.70
2019-04-20T07:13:15.130Z,10.10
2019-04-20T07:14:08.362Z,11.40
2019-04-20T07:15:19.857Z,10.00
2019-04-20T07:16:21.493Z,9.90
2019-04-20T07:17:33.436Z,10.20
2019-04-20T07:18:42.554Z,9.90
2019-04-20T07:19:24.136Z,10.20
2019-04-20T07:20:19.105Z,10.10
2019-04-20T07:21:40.554Z,9.60
2019-04-20T07:22:32.127Z,9.80
2019-04-20T07:23:26.888Z,10.30
2019-04-20T07:24:47.216Z,9.90
2019-04-20T07:25:26.296Z,10.00
2019-04-20T07:26:29.201Z,9.60
2019-04-20T07:27:23.028Z,9.80
2019-04-20T07:28:29.138Z,9.70
2019-04-20T07:29:27.271Z,10.50
2019-04-20T07:30:45.165Z,9.60
2019-04-20T07:31:22.994Z,9.90
2019-04-20T07:32:19.331Z,9.90
2019-04-20T07:33:30.074Z,9.90
2019-04-20T07:34:23.388Z,9.90
2019-04-20T07:35:25.084Z,9.70
2019-04-20T07:36:54.061Z,9.00
2019-04-20T07:37:48.308Z,9.80
2019-04-20T07:38:30.870Z,8.80
2019-04-20T07:39:27.966Z,9.50
2019-04-20T07:40:39.994Z,9.30
2019-04-20T07:41:39.782Z,9.30
2019-04-20T07:42:48.021Z,9.00
2019-04-20T07:43:28.077Z,9.00
2019-04-20T07:44:34.274Z,8.90
2019-04-20T07:45:45.959Z,9.20
2019-04-20T07:46:40.930Z,8.80
2019-04-20T07:47:33.073Z,9.90
2019-04-20T07:48:42.596Z,9.50
2019-04-20T07:49:24.445Z,8.70
2019-04-20T07:50:17.346Z,8.90
2019-04-20T07:51:12.507Z,9.00
2019-04-20T07:52:04.004Z,9.20
2019-04-20T07:53:21.388Z,9.10
2019-04-20T07:55:05.986Z,12.00
2019-04-20T07:56:25.656Z,9.00
2019-04-20T07:57:21.054Z,9.10
2019-04-20T07:58:15.671Z,9.00
2019-04-20T07:59:14.038Z,8.90
2019-04-20T08:00:59.259Z,8.40
2019-04-20T08:01:30.160Z,8.60
2019-04-20T08:02:33.793Z,8.70
2019-04-20T08:03:32.068Z,8.50
2019-04-20T08:04:22.625Z,8.10
2019-04-20T08:05:15.207Z,8.50
2019-04-20T08:06:32.009Z,8.40
2019-04-20T08:07:07.396Z,8.00
2019-04-20T08:08:24.157Z,7.90
2019-04-20T08:09:14.722Z,8.00
2019-04-20T08:10:09.133Z,7.80
2019-04-20T08:11:21.596Z,8.30
2019-04-20T08:12:51.612Z,8.00
2019-04-20T08:13:33.372Z,7.50
2019-04-20T08:14:25.926Z,7.60
2019-04-20T08:15:38.095Z,7.50
2019-04-20T08:16:31.073Z,6.90
2019-04-20T08:17:31.435Z,7.40
2019-04-20T08:19:04.177Z,7.90
2019-04-20T08:19:22.759Z,7.90
2019-04-20T08:20:20.519Z,7.60
2019-04-20T08:21:32.719Z,7.60
2019-04-20T08:22:26.735Z,7.20
2019-04-20T08:23:23.640Z,6.90
2019-04-20T08:24:42.943Z,7.30
2019-04-20T08:25:14.190Z,7.00
2019-04-20T08:26:11.020Z,7.00
2019-04-20T08:27:06.562Z,7.00
2019-04-20T08:28:06.367Z,6.90
2019-04-20T08:29:15.446Z,6.30
2019-04-20T08:30:41.319Z,6.50
2019-04-20T08:31:18.118Z,6.80
2019-04-20T08:32:25.515Z,6.10
2019-04-20T08:33:23.181Z,6.60
2019-04-20T08:34:28.188Z,6.30
2019-04-20T08:35:26.856Z,6.10
2019-04-20T08:36:49.207Z,6.00
2019-04-20T08:37:20.600Z,6.40
2019-04-20T08:39:41.161Z,6.40
2019-04-20T08:40:28.323Z,6.50
2019-04-20T08:41:21.920Z,6.40
2019-04-20T08:42:56.972Z,6.30
2019-04-20T08:43:38.220Z,6.30
2019-04-20T08:44:51.458Z,6.40
2019-04-20T08:45:31.403Z,6.60
2019-04-20T08:46:26.839Z,6.60
2019-04-20T08:47:35.280Z,6.80
2019-04-20T08:48:46.741Z,6.30
2019-04-20T08:49:31.039Z,6.50
2019-04-20T08:50:22.491Z,6.60
2019-04-20T08:51:25.775Z,6.60
2019-04-20T08:52:46.894Z,6.70
2019-04-20T08:53:25.940Z,7.00
2019-04-20T08:54:40.477Z,7.00
2019-04-20T08:55:23.492Z,6.50
2019-04-20T08:56:18.565Z,6.80
2019-04-20T08:57:05.054Z,6.90
2019-04-20T08:58:04.546Z,6.70
2019-04-20T08:59:04.423Z,7.10
2019-04-20T09:00:33.355Z,6.50
2019-04-20T09:01:08.325Z,6.50
2019-04-20T09:02:09.008Z,7.00
2019-04-20T09:03:13.205Z,6.60
2019-04-20T09:04:12.473Z,6.50
2019-04-20T09:05:11.673Z,6.70
2019-04-20T09:06:41.395Z,6.70
2019-04-20T09:07:13.193Z,6.60
2019-04-20T09:08:13.514Z,6.60
2019-04-20T09:09:33.165Z,6.70
2019-04-20T09:10:32.447Z,6.40
2019-04-20T09:11:23.260Z,6.60
2019-04-20T09:12:40.554Z,6.40
2019-04-20T09:13:16.044Z,6.40
2019-04-20T09:14:05.928Z,6.50
2019-04-20T09:15:05.883Z,6.30
2019-04-20T09:16:04.688Z,6.70
2019-04-20T09:17:07.983Z,6.30
2019-04-20T09:18:34.335Z,6.20
2019-04-20T09:19:09.474Z,6.00
2019-04-20T09:20:12.664Z,6.20
2019-04-20T09:21:15.473Z,6.50
2019-04-20T09:22:17.305Z,6.80
2019-04-20T09:23:21.323Z,6.40
2019-04-20T09:24:52.778Z,6.30
2019-04-20T09:25:45.911Z,6.60
2019-04-20T09:26:20.196Z,6.30
2019-04-20T09:27:20.736Z,6.40
2019-04-20T09:28:20.075Z,6.60
2019-04-20T09:29:16.882Z,6.20
2019-04-20T09:30:37.305Z,6.10
2019-04-20T09:31:27.002Z,6.20
2019-04-20T09:32:24.699Z,6.40
2019-04-20T09:33:23.345Z,6.30
2019-04-20T09:34:20.385Z,6.10
2019-04-20T09:35:25.127Z,6.30
2019-04-20T09:36:40.815Z,6.00
2019-04-20T09:37:36.822Z,6.40
2019-04-20T09:38:21.877Z,6.50
2019-04-20T09:39:15.050Z,6.30
2019-04-20T09:40:21.649Z,6.10
2019-04-20T09:41:31.720Z,6.30
2019-04-20T09:42:26.187Z,6.60
2019-04-20T09:43:06.536Z,6.30
2019-04-20T09:44:06.688Z,6.30
2019-04-20T09:45:07.566Z,6.40
2019-04-20T09:46:08.233Z,7.20
2019-04-20T09:47:07.361Z,6.20
2019-04-20T09:48:36.868Z,6.60
2019-04-20T09:49:18.349Z,6.20
2019-04-20T09:50:22.590Z,6.40
2019-04-20T09:51:24.753Z,6.50
2019-04-20T09:52:17.017Z,6.30
2019-04-20T09:53:20.916Z,6.50
2019-04-20T09:54:50.017Z,6.40
2019-04-20T09:55:18.369Z,6.60
2019-04-20T09:56:19.843Z,6.50
2019-04-20T09:57:26.801Z,6.40
2019-04-20T09:58:18.103Z,6.30
2019-04-20T09:59:23.165Z,6.40
2019-04-20T10:00:42.125Z,7.00
2019-04-20T10:01:21.400Z,6.70
2019-04-20T10:02:15.130Z,6.60
2019-04-20T10:03:06.643Z,6.70
2019-04-20T10:04:05.608Z,6.20
2019-04-20T10:05:05.634Z,6.40
2019-04-20T10:06:30.735Z,6.60
2019-04-20T10:07:11.419Z,6.40
2019-04-20T10:08:08.518Z,6.00
2019-04-20T10:09:05.740Z,6.30
2019-04-20T10:10:20.280Z,6.00
2019-04-20T10:11:05.777Z,6.20
2019-04-20T10:12:26.754Z,6.10
2019-04-20T10:13:07.213Z,6.20
2019-04-20T10:14:06.151Z,6.40
2019-04-20T10:15:12.421Z,6.10
2019-04-20T10:16:05.896Z,6.00
2019-04-20T10:17:05.869Z,6.20
2019-04-20T10:18:27.968Z,6.00
2019-04-20T10:19:07.851Z,6.60
2019-04-20T10:20:11.815Z,5.90
2019-04-20T10:21:05.962Z,6.40
2019-04-20T10:22:06.618Z,6.00
2019-04-20T10:23:06.779Z,6.20
2019-04-20T10:24:28.419Z,6.00
2019-04-20T10:25:06.649Z,5.80
2019-04-20T10:26:06.771Z,6.10
2019-04-20T10:27:06.314Z,5.90
2019-04-20T10:28:07.460Z,5.80
2019-04-20T10:29:06.099Z,6.20
2019-04-20T10:30:28.158Z,6.40
2019-04-20T10:31:06.445Z,5.80
2019-04-20T10:32:07.910Z,6.00
2019-04-20T10:33:06.203Z,5.50
2019-04-20T10:34:07.383Z,5.50
2019-04-20T10:35:06.604Z,5.70
2019-04-20T10:36:27.784Z,5.40
2019-04-20T10:37:06.293Z,5.90
2019-04-20T10:38:07.458Z,5.80
2019-04-20T10:39:06.614Z,5.80
2019-04-20T10:40:06.851Z,5.50
2019-04-20T10:41:13.911Z,5.90
2019-04-20T10:42:28.134Z,6.30
2019-04-20T10:43:06.440Z,5.90
2019-04-20T10:44:07.140Z,5.90
2019-04-20T10:45:06.497Z,5.90
2019-04-20T10:46:06.940Z,5.70
2019-04-20T10:47:07.251Z,5.50
2019-04-20T10:48:31.079Z,5.80
2019-04-20T10:49:07.781Z,5.70
2019-04-20T10:50:07.137Z,6.10
2019-04-20T10:51:08.209Z,5.80
2019-04-20T10:52:07.600Z,6.30
2019-04-20T10:53:07.849Z,6.00
2019-04-20T10:54:27.724Z,6.00
2019-04-20T10:55:06.710Z,5.90
2019-04-20T10:56:07.445Z,5.80
2019-04-20T10:57:07.815Z,5.90
2019-04-20T10:58:07.364Z,5.60
2019-04-20T10:59:07.734Z,5.80
2019-04-20T11:00:27.901Z,6.00
2019-04-20T11:01:07.390Z,5.50
2019-04-20T11:02:07.910Z,5.30
2019-04-20T11:03:08.078Z,5.80
2019-04-20T11:04:08.339Z,5.80
2019-04-20T11:05:06.955Z,5.80
2019-04-20T11:06:28.938Z,5.40
2019-04-20T11:07:08.205Z,5.50
2019-04-20T11:08:08.412Z,5.70
2019-04-20T11:09:07.066Z,5.60
2019-04-20T11:10:14.645Z,5.50
2019-04-20T11:11:14.650Z,5.30
2019-04-20T11:12:28.423Z,5.70
2019-04-20T11:13:07.381Z,5.40
2019-04-20T11:14:15.620Z,5.20
2019-04-20T11:15:08.333Z,5.30
2019-04-20T11:16:08.391Z,5.10
2019-04-20T11:17:08.568Z,5.30
2019-04-20T11:18:29.318Z,4.90
2019-04-20T11:19:07.492Z,5.10
2019-04-20T11:20:07.521Z,5.00
2019-04-20T11:21:07.318Z,5.00
2019-04-20T11:22:08.391Z,5.10
2019-04-20T11:23:08.435Z,5.00
2019-04-20T11:24:28.404Z,5.00
2019-04-20T11:25:08.298Z,5.40
2019-04-20T11:26:08.545Z,5.30
2019-04-20T11:27:07.912Z,5.20
2019-04-20T11:28:08.205Z,5.10
2019-04-20T11:29:08.379Z,4.80
2019-04-20T11:30:29.959Z,4.90
2019-04-20T11:31:08.045Z,5.10
2019-04-20T11:32:07.574Z,5.00
2019-04-20T11:33:07.577Z,4.70
2019-04-20T11:34:08.063Z,4.50
2019-04-20T11:35:15.969Z,4.70
2019-04-20T11:36:28.672Z,4.90
2019-04-20T11:37:08.823Z,4.90
2019-04-20T11:38:10.189Z,4.60
2019-04-20T11:39:09.016Z,4.70
2019-04-20T11:40:08.648Z,4.80
2019-04-20T11:41:17.273Z,4.50
2019-04-20T11:42:29.885Z,4.90
2019-04-20T11:43:07.975Z,4.80
2019-04-20T11:44:07.854Z,5.10
2019-04-20T11:45:08.751Z,4.80
2019-04-20T11:46:09.020Z,4.90
2019-04-20T11:47:08.491Z,4.80
2019-04-20T11:48:29.631Z,4.80
2019-04-20T11:49:07.996Z,4.70
2019-04-20T11:50:09.352Z,4.50
2019-04-20T11:51:07.988Z,4.70
2019-04-20T11:52:08.025Z,4.90
2019-04-20T11:53:09.049Z,4.70
2019-04-20T11:54:30.353Z,4.50
2019-04-20T11:55:08.490Z,4.60
2019-04-20T11:56:14.442Z,4.80
2019-04-20T11:57:09.007Z,4.70
2019-04-20T11:58:08.181Z,4.70
2019-04-20T11:59:09.336Z,4.90
2019-04-20T12:00:29.894Z,4.80
2019-04-20T12:01:13.502Z,5.00
2019-04-20T12:02:10.811Z,4.90
2019-04-20T12:03:16.309Z,5.20
2019-04-20T12:04:20.140Z,5.00
2019-04-20T12:05:21.370Z,5.50
2019-04-20T12:06:30.712Z,5.50
2019-04-20T12:07:08.865Z,5.10
2019-04-20T12:08:09.208Z,5.30
2019-04-20T12:09:08.403Z,5.30
2019-04-20T12:10:13.864Z,5.10
2019-04-20T12:11:23.037Z,5.70
2019-04-20T12:12:37.083Z,5.50
2019-04-20T12:13:09.811Z,6.00
2019-04-20T12:14:08.507Z,5.80
2019-04-20T12:15:08.689Z,5.30
2019-04-20T12:16:09.767Z,5.30
2019-04-20T12:17:08.581Z,5.50
2019-04-20T12:18:29.623Z,5.60
2019-04-20T12:19:08.686Z,5.70
2019-04-20T12:20:08.637Z,5.50
2019-04-20T12:21:08.653Z,5.40
2019-04-20T12:22:09.699Z,5.30
2019-04-20T12:23:08.712Z,5.40
2019-04-20T12:24:31.178Z,5.30
2019-04-20T12:25:09.975Z,5.50
2019-04-20T12:26:08.963Z,5.30
2019-04-20T12:27:08.844Z,5.50
2019-04-20T12:28:09.577Z,5.70
2019-04-20T12:29:09.929Z,5.50
2019-04-20T12:30:30.053Z,5.20
2019-04-20T12:31:11.985Z,5.70
2019-04-20T12:32:09.066Z,5.20
2019-04-20T12:33:09.467Z,5.50
2019-04-20T12:34:08.927Z,5.50
2019-04-20T12:35:08.954Z,5.50
2019-04-20T12:36:30.210Z,5.30
2019-04-20T12:37:09.106Z,5.50
2019-04-20T12:38:10.270Z,5.50
2019-04-20T12:39:09.056Z,5.30
2019-04-20T12:40:09.122Z,5.60
2019-04-20T12:41:11.039Z,5.60
2019-04-20T12:42:30.848Z,5.50
2019-04-20T12:43:09.127Z,5.50
2019-04-20T12:44:09.944Z,5.20
2019-04-20T12:45:09.173Z,5.50
2019-04-20T12:46:09.897Z,5.60
2019-04-20T12:47:10.044Z,5.20
2019-04-20T12:48:31.402Z,5.40
2019-04-20T12:49:09.538Z,5.20
2019-04-20T12:50:09.736Z,4.90
2019-04-20T12:51:09.319Z,5.20
2019-04-20T12:52:10.241Z,5.20
2019-04-20T12:53:10.399Z,5.00
2019-04-20T12:54:30.391Z,4.90
2019-04-20T12:55:10.435Z,5.60
2019-04-20T12:56:10.569Z,5.50
2019-04-20T12:57:10.786Z,5.90
2019-04-20T12:58:10.525Z,5.50
2019-04-20T12:59:09.680Z,5.60
2019-04-20T13:00:30.530Z,5.60
2019-04-20T13:01:10.098Z,5.20
2019-04-20T13:02:09.563Z,5.60
2019-04-20T13:03:09.600Z,5.10
2019-04-20T13:04:09.673Z,5.30
2019-04-20T13:05:09.626Z,5.00
2019-04-20T13:06:32.062Z,5.20
2019-04-20T13:07:10.131Z,5.00
2019-04-20T13:08:09.702Z,4.90
2019-04-20T13:09:10.540Z,4.90
2019-04-20T13:10:09.829Z,4.80
2019-04-20T13:11:10.966Z,4.40
2019-04-20T13:12:32.090Z,4.50
2019-04-20T13:13:10.306Z,4.60
2019-04-20T13:14:10.388Z,4.60
2019-04-20T13:15:10.684Z,4.60
2019-04-20T13:16:10.194Z,4.80
2019-04-20T13:17:10.338Z,5.30
2019-04-20T13:18:30.944Z,5.10
2019-04-20T13:19:11.147Z,4.50
2019-04-20T13:20:10.105Z,4.70
2019-04-20T13:21:11.178Z,4.70
2019-04-20T13:22:10.865Z,4.60
2019-04-20T13:23:10.978Z,4.40
2019-04-20T13:24:32.215Z,4.60
2019-04-20T13:25:10.773Z,4.60
2019-04-20T13:26:11.013Z,4.80
2019-04-20T13:27:11.126Z,4.80
2019-04-20T13:28:10.699Z,4.60
2019-04-20T13:29:10.966Z,4.70
2019-04-20T13:30:32.240Z,4.60
2019-04-20T13:31:11.535Z,4.70
2019-04-20T13:32:10.257Z,4.70
2019-04-20T13:33:10.279Z,4.90
2019-04-20T13:34:10.291Z,4.90